sensor_id;sensor_type;location;lat;lon;timestamp;P1;durP1;ratioP1;P2;durP2;ratioP2
52386;SDS011;38317;53.084;6.960;2023-06-04T00:01:35;4.80;;;1.73;;
52386;SDS011;38317;53.084;6.960;2023-06-04T00:04:00;6.57;;;1.85;;
52386;SDS011;38317;53.084;6.960;2023-06-04T00:06:26;5.65;;;1.80;;
52386;SDS011;38317;53.084;6.960;2023-06-04T00:08:52;4.53;;;1.80;;
52386;SDS011;38317;53.084;6.960;2023-06-04T00:11:17;5.60;;;2.03;;
52386;SDS011;38317;53.084;6.960;2023-06-04T00:13:45;5.13;;;1.65;;
52386;SDS011;38317;53.084;6.960;2023-06-04T00:16:10;4.38;;;1.95;;
52386;SDS011;38317;53.084;6.960;2023-06-04T00:18:36;8.15;;;2.33;;
52386;SDS011;38317;53.084;6.960;2023-06-04T00:21:02;6.72;;;2.10;;
52386;SDS011;38317;53.084;6.960;2023-06-04T00:23:28;6.63;;;1.83;;
52386;SDS011;38317;53.084;6.960;2023-06-04T00:25:53;8.10;;;1.90;;
52386;SDS011;38317;53.084;6.960;2023-06-04T00:28:19;4.47;;;1.55;;
52386;SDS011;38317;53.084;6.960;2023-06-04T00:30:45;6.57;;;1.73;;
52386;SDS011;38317;53.084;6.960;2023-06-04T00:33:11;4.82;;;1.80;;
52386;SDS011;38317;53.084;6.960;2023-06-04T00:35:37;6.00;;;1.70;;
52386;SDS011;38317;53.084;6.960;2023-06-04T00:38:03;4.93;;;1.60;;
52386;SDS011;38317;53.084;6.960;2023-06-04T00:40:28;5.55;;;1.95;;
52386;SDS011;38317;53.084;6.960;2023-06-04T00:42:54;6.45;;;1.98;;
52386;SDS011;38317;53.084;6.960;2023-06-04T00:45:20;5.47;;;1.85;;
52386;SDS011;38317;53.084;6.960;2023-06-04T00:47:46;4.40;;;1.60;;
52386;SDS011;38317;53.084;6.960;2023-06-04T00:50:13;6.30;;;1.65;;
52386;SDS011;38317;53.084;6.960;2023-06-04T00:52:39;5.07;;;1.98;;
52386;SDS011;38317;53.084;6.960;2023-06-04T00:55:05;7.78;;;1.65;;
52386;SDS011;38317;53.084;6.960;2023-06-04T00:57:31;7.25;;;2.25;;
52386;SDS011;38317;53.084;6.960;2023-06-04T00:59:57;6.47;;;2.05;;
52386;SDS011;38317;53.084;6.960;2023-06-04T01:02:23;4.65;;;1.85;;
52386;SDS011;38317;53.084;6.960;2023-06-04T01:07:20;6.68;;;1.90;;
52386;SDS011;38317;53.084;6.960;2023-06-04T01:09:48;6.80;;;2.00;;
52386;SDS011;38317;53.084;6.960;2023-06-04T01:12:14;6.10;;;2.05;;
52386;SDS011;38317;53.084;6.960;2023-06-04T01:14:40;8.05;;;2.20;;
52386;SDS011;38317;53.084;6.960;2023-06-04T01:17:08;6.20;;;2.00;;
52386;SDS011;38317;53.084;6.960;2023-06-04T01:19:56;8.27;;;2.10;;
52386;SDS011;38317;53.084;6.960;2023-06-04T01:25:31;6.95;;;2.20;;
52386;SDS011;38317;53.084;6.960;2023-06-04T01:28:02;5.63;;;1.90;;
52386;SDS011;38317;53.084;6.960;2023-06-04T01:30:30;5.53;;;1.80;;
52386;SDS011;38317;53.084;6.960;2023-06-04T01:33:08;9.18;;;2.03;;
52386;SDS011;38317;53.084;6.960;2023-06-04T01:35:36;8.02;;;2.00;;
52386;SDS011;38317;53.084;6.960;2023-06-04T01:38:02;5.97;;;2.00;;
52386;SDS011;38317;53.084;6.960;2023-06-04T01:40:28;5.30;;;2.00;;
52386;SDS011;38317;53.084;6.960;2023-06-04T01:42:54;7.30;;;1.95;;
52386;SDS011;38317;53.084;6.960;2023-06-04T01:45:25;7.65;;;2.45;;
52386;SDS011;38317;53.084;6.960;2023-06-04T01:47:52;6.78;;;2.17;;
52386;SDS011;38317;53.084;6.960;2023-06-04T01:50:19;6.55;;;2.08;;
52386;SDS011;38317;53.084;6.960;2023-06-04T01:52:45;7.82;;;2.50;;
52386;SDS011;38317;53.084;6.960;2023-06-04T01:55:14;7.93;;;2.47;;
52386;SDS011;38317;53.084;6.960;2023-06-04T01:57:41;7.72;;;2.42;;
52386;SDS011;38317;53.084;6.960;2023-06-04T02:00:09;5.13;;;2.13;;
52386;SDS011;38317;53.084;6.960;2023-06-04T02:02:37;6.28;;;2.33;;
52386;SDS011;38317;53.084;6.960;2023-06-04T02:05:03;7.03;;;2.00;;
52386;SDS011;38317;53.084;6.960;2023-06-04T02:07:36;4.95;;;2.08;;
52386;SDS011;38317;53.084;6.960;2023-06-04T02:10:07;8.52;;;2.45;;
52386;SDS011;38317;53.084;6.960;2023-06-04T02:12:36;5.45;;;1.85;;
52386;SDS011;38317;53.084;6.960;2023-06-04T02:15:03;10.30;;;2.67;;
52386;SDS011;38317;53.084;6.960;2023-06-04T02:17:29;5.57;;;2.22;;
52386;SDS011;38317;53.084;6.960;2023-06-04T02:19:57;4.60;;;1.83;;
52386;SDS011;38317;53.084;6.960;2023-06-04T02:22:24;7.43;;;2.20;;
52386;SDS011;38317;53.084;6.960;2023-06-04T02:24:50;4.90;;;1.98;;
52386;SDS011;38317;53.084;6.960;2023-06-04T02:27:16;6.03;;;2.28;;
52386;SDS011;38317;53.084;6.960;2023-06-04T02:29:42;7.93;;;2.35;;
52386;SDS011;38317;53.084;6.960;2023-06-04T02:32:08;5.80;;;2.40;;
52386;SDS011;38317;53.084;6.960;2023-06-04T02:34:34;6.47;;;2.30;;
52386;SDS011;38317;53.084;6.960;2023-06-04T02:37:01;6.18;;;2.13;;
52386;SDS011;38317;53.084;6.960;2023-06-04T02:39:27;6.40;;;2.10;;
52386;SDS011;38317;53.084;6.960;2023-06-04T02:41:53;6.28;;;2.05;;
52386;SDS011;38317;53.084;6.960;2023-06-04T02:44:18;7.10;;;1.92;;
52386;SDS011;38317;53.084;6.960;2023-06-04T02:46:44;7.22;;;2.30;;
52386;SDS011;38317;53.084;6.960;2023-06-04T02:49:10;4.90;;;1.70;;
52386;SDS011;38317;53.084;6.960;2023-06-04T02:51:42;6.25;;;2.17;;
52386;SDS011;38317;53.084;6.960;2023-06-04T02:54:09;8.13;;;2.75;;
52386;SDS011;38317;53.084;6.960;2023-06-04T02:56:35;7.45;;;2.05;;
52386;SDS011;38317;53.084;6.960;2023-06-04T02:59:02;5.93;;;2.10;;
52386;SDS011;38317;53.084;6.960;2023-06-04T03:01:28;5.20;;;1.98;;
52386;SDS011;38317;53.084;6.960;2023-06-04T03:03:55;4.65;;;2.17;;
52386;SDS011;38317;53.084;6.960;2023-06-04T03:06:22;7.10;;;2.10;;
52386;SDS011;38317;53.084;6.960;2023-06-04T03:08:49;9.48;;;2.38;;
52386;SDS011;38317;53.084;6.960;2023-06-04T03:11:15;4.35;;;1.95;;
52386;SDS011;38317;53.084;6.960;2023-06-04T03:13:42;5.65;;;2.20;;
52386;SDS011;38317;53.084;6.960;2023-06-04T03:16:08;5.93;;;2.20;;
52386;SDS011;38317;53.084;6.960;2023-06-04T03:18:35;7.93;;;2.30;;
52386;SDS011;38317;53.084;6.960;2023-06-04T03:21:02;6.95;;;2.28;;
52386;SDS011;38317;53.084;6.960;2023-06-04T03:23:30;5.47;;;2.35;;
52386;SDS011;38317;53.084;6.960;2023-06-04T03:25:56;7.80;;;2.60;;
52386;SDS011;38317;53.084;6.960;2023-06-04T03:28:21;5.78;;;2.30;;
52386;SDS011;38317;53.084;6.960;2023-06-04T03:30:47;5.60;;;2.00;;
52386;SDS011;38317;53.084;6.960;2023-06-04T03:33:13;5.90;;;2.38;;
52386;SDS011;38317;53.084;6.960;2023-06-04T03:35:40;7.05;;;2.63;;
52386;SDS011;38317;53.084;6.960;2023-06-04T03:38:05;7.38;;;2.60;;
52386;SDS011;38317;53.084;6.960;2023-06-04T03:40:31;7.30;;;2.53;;
52386;SDS011;38317;53.084;6.960;2023-06-04T03:42:57;8.80;;;2.88;;
52386;SDS011;38317;53.084;6.960;2023-06-04T03:45:23;8.27;;;2.83;;
52386;SDS011;38317;53.084;6.960;2023-06-04T03:47:49;9.82;;;3.25;;
52386;SDS011;38317;53.084;6.960;2023-06-04T03:50:14;6.95;;;2.97;;
52386;SDS011;38317;53.084;6.960;2023-06-04T03:52:40;6.38;;;3.05;;
52386;SDS011;38317;53.084;6.960;2023-06-04T03:55:06;7.93;;;3.40;;
52386;SDS011;38317;53.084;6.960;2023-06-04T03:57:32;7.80;;;3.38;;
52386;SDS011;38317;53.084;6.960;2023-06-04T03:59:58;7.00;;;3.08;;
52386;SDS011;38317;53.084;6.960;2023-06-04T04:02:23;7.95;;;3.33;;
52386;SDS011;38317;53.084;6.960;2023-06-04T04:04:49;9.85;;;3.33;;
52386;SDS011;38317;53.084;6.960;2023-06-04T04:07:15;7.07;;;3.03;;
52386;SDS011;38317;53.084;6.960;2023-06-04T04:09:41;7.97;;;3.42;;
52386;SDS011;38317;53.084;6.960;2023-06-04T04:12:06;8.90;;;3.40;;
52386;SDS011;38317;53.084;6.960;2023-06-04T04:14:32;6.97;;;3.30;;
52386;SDS011;38317;53.084;6.960;2023-06-04T04:16:58;7.60;;;2.90;;
52386;SDS011;38317;53.084;6.960;2023-06-04T04:19:24;6.03;;;2.83;;
52386;SDS011;38317;53.084;6.960;2023-06-04T04:21:51;8.60;;;3.42;;
52386;SDS011;38317;53.084;6.960;2023-06-04T04:24:26;5.80;;;3.33;;
52386;SDS011;38317;53.084;6.960;2023-06-04T04:26:53;7.72;;;3.28;;
52386;SDS011;38317;53.084;6.960;2023-06-04T04:29:22;7.47;;;3.20;;
52386;SDS011;38317;53.084;6.960;2023-06-04T04:31:50;6.82;;;3.50;;
52386;SDS011;38317;53.084;6.960;2023-06-04T04:34:16;8.75;;;3.50;;
52386;SDS011;38317;53.084;6.960;2023-06-04T04:36:45;6.82;;;3.50;;
52386;SDS011;38317;53.084;6.960;2023-06-04T04:39:17;9.23;;;4.07;;
52386;SDS011;38317;53.084;6.960;2023-06-04T04:41:47;9.10;;;3.75;;
52386;SDS011;38317;53.084;6.960;2023-06-04T04:44:13;7.53;;;4.35;;
52386;SDS011;38317;53.084;6.960;2023-06-04T04:46:39;8.23;;;4.20;;
52386;SDS011;38317;53.084;6.960;2023-06-04T04:49:05;7.07;;;3.92;;
52386;SDS011;38317;53.084;6.960;2023-06-04T04:51:31;10.60;;;4.43;;
52386;SDS011;38317;53.084;6.960;2023-06-04T04:53:57;8.82;;;4.22;;
52386;SDS011;38317;53.084;6.960;2023-06-04T04:56:25;8.07;;;3.90;;
52386;SDS011;38317;53.084;6.960;2023-06-04T04:58:52;7.93;;;4.20;;
52386;SDS011;38317;53.084;6.960;2023-06-04T05:01:18;10.70;;;4.63;;
52386;SDS011;38317;53.084;6.960;2023-06-04T05:03:44;9.13;;;4.30;;
52386;SDS011;38317;53.084;6.960;2023-06-04T05:06:10;12.85;;;4.35;;
52386;SDS011;38317;53.084;6.960;2023-06-04T05:08:36;8.85;;;3.67;;
52386;SDS011;38317;53.084;6.960;2023-06-04T05:11:02;10.05;;;3.85;;
52386;SDS011;38317;53.084;6.960;2023-06-04T05:13:27;10.20;;;4.05;;
52386;SDS011;38317;53.084;6.960;2023-06-04T05:15:53;8.95;;;3.83;;
52386;SDS011;38317;53.084;6.960;2023-06-04T05:18:19;7.63;;;3.75;;
52386;SDS011;38317;53.084;6.960;2023-06-04T05:20:53;7.05;;;4.00;;
52386;SDS011;38317;53.084;6.960;2023-06-04T05:23:20;7.88;;;4.00;;
52386;SDS011;38317;53.084;6.960;2023-06-04T05:25:45;10.10;;;4.10;;
52386;SDS011;38317;53.084;6.960;2023-06-04T05:28:14;8.23;;;3.88;;
52386;SDS011;38317;53.084;6.960;2023-06-04T05:30:40;11.63;;;4.55;;
52386;SDS011;38317;53.084;6.960;2023-06-04T05:33:07;10.57;;;3.70;;
52386;SDS011;38317;53.084;6.960;2023-06-04T05:35:46;9.20;;;3.60;;
52386;SDS011;38317;53.084;6.960;2023-06-04T05:38:13;8.70;;;3.45;;
52386;SDS011;38317;53.084;6.960;2023-06-04T05:40:42;7.85;;;3.30;;
52386;SDS011;38317;53.084;6.960;2023-06-04T05:43:08;8.02;;;3.00;;
52386;SDS011;38317;53.084;6.960;2023-06-04T05:45:34;10.68;;;3.40;;
52386;SDS011;38317;53.084;6.960;2023-06-04T05:48:00;7.95;;;2.63;;
52386;SDS011;38317;53.084;6.960;2023-06-04T05:50:26;6.78;;;2.25;;
52386;SDS011;38317;53.084;6.960;2023-06-04T05:52:52;10.23;;;2.92;;
52386;SDS011;38317;53.084;6.960;2023-06-04T05:55:18;11.73;;;2.60;;
52386;SDS011;38317;53.084;6.960;2023-06-04T05:57:44;13.23;;;2.65;;
52386;SDS011;38317;53.084;6.960;2023-06-04T06:00:10;11.60;;;2.92;;
52386;SDS011;38317;53.084;6.960;2023-06-04T06:02:36;7.28;;;2.97;;
52386;SDS011;38317;53.084;6.960;2023-06-04T06:05:05;8.23;;;2.85;;
52386;SDS011;38317;53.084;6.960;2023-06-04T06:07:34;7.88;;;2.47;;
52386;SDS011;38317;53.084;6.960;2023-06-04T06:10:00;8.10;;;1.83;;
52386;SDS011;38317;53.084;6.960;2023-06-04T06:12:26;5.90;;;2.30;;
52386;SDS011;38317;53.084;6.960;2023-06-04T06:14:51;10.60;;;2.80;;
52386;SDS011;38317;53.084;6.960;2023-06-04T06:17:17;13.35;;;3.00;;
52386;SDS011;38317;53.084;6.960;2023-06-04T06:19:43;11.55;;;2.83;;
52386;SDS011;38317;53.084;6.960;2023-06-04T06:22:09;8.00;;;2.40;;
52386;SDS011;38317;53.084;6.960;2023-06-04T06:24:35;9.05;;;2.60;;
52386;SDS011;38317;53.084;6.960;2023-06-04T06:27:01;6.50;;;2.15;;
52386;SDS011;38317;53.084;6.960;2023-06-04T06:29:27;8.68;;;2.38;;
52386;SDS011;38317;53.084;6.960;2023-06-04T06:31:53;8.77;;;2.30;;
52386;SDS011;38317;53.084;6.960;2023-06-04T06:34:18;11.77;;;2.60;;
52386;SDS011;38317;53.084;6.960;2023-06-04T06:36:44;6.88;;;2.00;;
52386;SDS011;38317;53.084;6.960;2023-06-04T06:39:10;7.60;;;2.30;;
52386;SDS011;38317;53.084;6.960;2023-06-04T06:41:36;8.25;;;2.25;;
52386;SDS011;38317;53.084;6.960;2023-06-04T06:44:03;7.40;;;1.90;;
52386;SDS011;38317;53.084;6.960;2023-06-04T06:46:30;8.25;;;1.80;;
52386;SDS011;38317;53.084;6.960;2023-06-04T06:48:56;10.18;;;2.17;;
52386;SDS011;38317;53.084;6.960;2023-06-04T06:51:25;6.18;;;1.73;;
52386;SDS011;38317;53.084;6.960;2023-06-04T06:53:51;6.88;;;1.95;;
52386;SDS011;38317;53.084;6.960;2023-06-04T06:56:16;5.82;;;1.75;;
52386;SDS011;38317;53.084;6.960;2023-06-04T06:58:49;8.80;;;1.90;;
52386;SDS011;38317;53.084;6.960;2023-06-04T07:03:42;9.20;;;1.85;;
52386;SDS011;38317;53.084;6.960;2023-06-04T07:06:08;4.32;;;1.65;;
52386;SDS011;38317;53.084;6.960;2023-06-04T07:08:33;6.88;;;1.60;;
52386;SDS011;38317;53.084;6.960;2023-06-04T07:11:01;7.25;;;1.70;;
52386;SDS011;38317;53.084;6.960;2023-06-04T07:13:30;7.20;;;1.67;;
52386;SDS011;38317;53.084;6.960;2023-06-04T07:15:58;6.82;;;1.50;;
52386;SDS011;38317;53.084;6.960;2023-06-04T07:18:24;8.15;;;1.67;;
52386;SDS011;38317;53.084;6.960;2023-06-04T07:20:50;4.88;;;1.40;;
52386;SDS011;38317;53.084;6.960;2023-06-04T07:23:17;4.18;;;1.38;;
52386;SDS011;38317;53.084;6.960;2023-06-04T07:25:43;9.10;;;1.80;;
52386;SDS011;38317;53.084;6.960;2023-06-04T07:28:09;6.97;;;1.20;;
52386;SDS011;38317;53.084;6.960;2023-06-04T07:30:38;4.65;;;1.40;;
52386;SDS011;38317;53.084;6.960;2023-06-04T07:33:04;7.82;;;1.38;;
52386;SDS011;38317;53.084;6.960;2023-06-04T07:35:31;4.95;;;1.20;;
52386;SDS011;38317;53.084;6.960;2023-06-04T07:37:57;7.25;;;1.23;;
52386;SDS011;38317;53.084;6.960;2023-06-04T07:40:23;4.80;;;1.00;;
52386;SDS011;38317;53.084;6.960;2023-06-04T07:42:48;4.13;;;0.90;;
52386;SDS011;38317;53.084;6.960;2023-06-04T07:45:14;6.32;;;1.05;;
52386;SDS011;38317;53.084;6.960;2023-06-04T07:47:43;4.47;;;1.08;;
52386;SDS011;38317;53.084;6.960;2023-06-04T07:50:09;6.93;;;1.10;;
52386;SDS011;38317;53.084;6.960;2023-06-04T07:52:35;3.83;;;0.73;;
52386;SDS011;38317;53.084;6.960;2023-06-04T07:55:01;6.47;;;0.90;;
52386;SDS011;38317;53.084;6.960;2023-06-04T07:57:28;3.22;;;1.10;;
52386;SDS011;38317;53.084;6.960;2023-06-04T07:59:54;3.47;;;1.00;;
52386;SDS011;38317;53.084;6.960;2023-06-04T08:02:22;3.85;;;0.90;;
52386;SDS011;38317;53.084;6.960;2023-06-04T08:04:47;5.05;;;1.23;;
52386;SDS011;38317;53.084;6.960;2023-06-04T08:07:13;3.53;;;1.10;;
52386;SDS011;38317;53.084;6.960;2023-06-04T08:09:39;4.20;;;0.82;;
52386;SDS011;38317;53.084;6.960;2023-06-04T08:12:05;2.17;;;0.70;;
52386;SDS011;38317;53.084;6.960;2023-06-04T08:14:34;2.90;;;0.80;;
52386;SDS011;38317;53.084;6.960;2023-06-04T08:17:00;6.53;;;1.08;;
52386;SDS011;38317;53.084;6.960;2023-06-04T08:19:31;2.08;;;0.63;;
52386;SDS011;38317;53.084;6.960;2023-06-04T08:21:57;4.80;;;0.90;;
52386;SDS011;38317;53.084;6.960;2023-06-04T08:24:23;2.38;;;0.70;;
52386;SDS011;38317;53.084;6.960;2023-06-04T08:26:49;4.88;;;1.05;;
52386;SDS011;38317;53.084;6.960;2023-06-04T08:29:15;6.45;;;0.90;;
52386;SDS011;38317;53.084;6.960;2023-06-04T08:31:41;4.70;;;0.88;;
52386;SDS011;38317;53.084;6.960;2023-06-04T08:34:06;3.30;;;0.95;;
52386;SDS011;38317;53.084;6.960;2023-06-04T08:36:33;3.67;;;0.93;;
52386;SDS011;38317;53.084;6.960;2023-06-04T08:38:59;2.90;;;1.02;;
52386;SDS011;38317;53.084;6.960;2023-06-04T08:41:29;7.10;;;0.95;;
52386;SDS011;38317;53.084;6.960;2023-06-04T08:43:57;2.75;;;0.70;;
52386;SDS011;38317;53.084;6.960;2023-06-04T08:46:23;4.10;;;0.70;;
52386;SDS011;38317;53.084;6.960;2023-06-04T08:48:49;3.10;;;0.80;;
52386;SDS011;38317;53.084;6.960;2023-06-04T08:51:15;3.83;;;0.75;;
52386;SDS011;38317;53.084;6.960;2023-06-04T08:53:42;3.30;;;0.90;;
52386;SDS011;38317;53.084;6.960;2023-06-04T08:56:09;3.88;;;0.93;;
52386;SDS011;38317;53.084;6.960;2023-06-04T08:58:35;5.82;;;0.85;;
52386;SDS011;38317;53.084;6.960;2023-06-04T09:01:04;2.53;;;0.80;;
52386;SDS011;38317;53.084;6.960;2023-06-04T09:03:30;5.15;;;1.45;;
52386;SDS011;38317;53.084;6.960;2023-06-04T09:05:57;2.90;;;0.82;;
52386;SDS011;38317;53.084;6.960;2023-06-04T09:08:24;2.85;;;0.68;;
52386;SDS011;38317;53.084;6.960;2023-06-04T09:10:53;3.53;;;0.90;;
52386;SDS011;38317;53.084;6.960;2023-06-04T09:13:22;2.08;;;0.80;;
52386;SDS011;38317;53.084;6.960;2023-06-04T09:16:02;3.72;;;0.73;;
52386;SDS011;38317;53.084;6.960;2023-06-04T09:18:29;4.28;;;0.82;;
52386;SDS011;38317;53.084;6.960;2023-06-04T09:21:05;1.30;;;0.57;;
52386;SDS011;38317;53.084;6.960;2023-06-04T09:23:45;1.45;;;0.60;;
52386;SDS011;38317;53.084;6.960;2023-06-04T09:26:12;2.15;;;0.70;;
52386;SDS011;38317;53.084;6.960;2023-06-04T09:28:41;3.20;;;0.80;;
52386;SDS011;38317;53.084;6.960;2023-06-04T09:31:14;4.20;;;0.90;;
52386;SDS011;38317;53.084;6.960;2023-06-04T09:33:50;1.17;;;0.60;;
52386;SDS011;38317;53.084;6.960;2023-06-04T09:36:16;2.42;;;0.70;;
52386;SDS011;38317;53.084;6.960;2023-06-04T09:38:42;2.38;;;0.50;;
52386;SDS011;38317;53.084;6.960;2023-06-04T09:41:15;2.45;;;0.60;;
52386;SDS011;38317;53.084;6.960;2023-06-04T09:43:44;2.33;;;0.60;;
52386;SDS011;38317;53.084;6.960;2023-06-04T09:46:11;2.15;;;0.60;;
52386;SDS011;38317;53.084;6.960;2023-06-04T09:48:38;3.10;;;0.60;;
52386;SDS011;38317;53.084;6.960;2023-06-04T09:51:08;4.18;;;0.90;;
52386;SDS011;38317;53.084;6.960;2023-06-04T09:53:35;3.13;;;0.75;;
52386;SDS011;38317;53.084;6.960;2023-06-04T09:56:02;1.92;;;0.60;;
52386;SDS011;38317;53.084;6.960;2023-06-04T09:58:29;3.75;;;0.70;;
52386;SDS011;38317;53.084;6.960;2023-06-04T10:00:56;2.28;;;0.60;;
52386;SDS011;38317;53.084;6.960;2023-06-04T10:03:30;2.03;;;0.65;;
52386;SDS011;38317;53.084;6.960;2023-06-04T10:06:07;2.88;;;0.73;;
52386;SDS011;38317;53.084;6.960;2023-06-04T10:08:34;3.38;;;0.80;;
52386;SDS011;38317;53.084;6.960;2023-06-04T10:11:00;3.40;;;0.70;;
52386;SDS011;38317;53.084;6.960;2023-06-04T10:13:31;3.05;;;0.70;;
52386;SDS011;38317;53.084;6.960;2023-06-04T10:16:08;1.67;;;0.50;;
52386;SDS011;38317;53.084;6.960;2023-06-04T10:18:37;2.92;;;0.75;;
52386;SDS011;38317;53.084;6.960;2023-06-04T10:21:04;2.38;;;0.47;;
52386;SDS011;38317;53.084;6.960;2023-06-04T10:23:31;3.90;;;0.90;;
52386;SDS011;38317;53.084;6.960;2023-06-04T10:25:57;1.48;;;0.55;;
52386;SDS011;38317;53.084;6.960;2023-06-04T10:28:24;2.25;;;0.75;;
52386;SDS011;38317;53.084;6.960;2023-06-04T10:30:51;4.43;;;1.15;;
52386;SDS011;38317;53.084;6.960;2023-06-04T10:33:17;3.50;;;0.77;;
52386;SDS011;38317;53.084;6.960;2023-06-04T10:35:45;2.85;;;0.60;;
52386;SDS011;38317;53.084;6.960;2023-06-04T10:38:12;5.82;;;0.80;;
52386;SDS011;38317;53.084;6.960;2023-06-04T10:40:39;3.20;;;0.90;;
52386;SDS011;38317;53.084;6.960;2023-06-04T10:43:12;2.15;;;0.55;;
52386;SDS011;38317;53.084;6.960;2023-06-04T10:45:39;3.65;;;0.85;;
52386;SDS011;38317;53.084;6.960;2023-06-04T10:48:06;3.13;;;0.70;;
52386;SDS011;38317;53.084;6.960;2023-06-04T10:50:33;3.15;;;0.80;;
52386;SDS011;38317;53.084;6.960;2023-06-04T10:53:00;3.10;;;0.77;;
52386;SDS011;38317;53.084;6.960;2023-06-04T10:55:30;2.13;;;0.60;;
52386;SDS011;38317;53.084;6.960;2023-06-04T10:57:57;3.25;;;0.75;;
52386;SDS011;38317;53.084;6.960;2023-06-04T11:03:05;3.22;;;0.70;;
52386;SDS011;38317;53.084;6.960;2023-06-04T11:05:38;2.72;;;0.80;;
52386;SDS011;38317;53.084;6.960;2023-06-04T11:08:05;4.32;;;0.82;;
52386;SDS011;38317;53.084;6.960;2023-06-04T11:10:35;5.57;;;0.68;;
52386;SDS011;38317;53.084;6.960;2023-06-04T11:13:03;2.53;;;0.70;;
52386;SDS011;38317;53.084;6.960;2023-06-04T11:18:13;1.23;;;0.57;;
52386;SDS011;38317;53.084;6.960;2023-06-04T11:20:57;2.85;;;0.73;;
52386;SDS011;38317;53.084;6.960;2023-06-04T11:23:24;2.88;;;0.70;;
52386;SDS011;38317;53.084;6.960;2023-06-04T11:25:52;2.05;;;0.73;;
52386;SDS011;38317;53.084;6.960;2023-06-04T11:28:18;1.95;;;0.70;;
52386;SDS011;38317;53.084;6.960;2023-06-04T11:30:55;3.45;;;0.70;;
52386;SDS011;38317;53.084;6.960;2023-06-04T11:33:27;1.67;;;0.57;;
52386;SDS011;38317;53.084;6.960;2023-06-04T11:35:53;1.58;;;0.40;;
52386;SDS011;38317;53.084;6.960;2023-06-04T11:38:19;3.70;;;0.70;;
52386;SDS011;38317;53.084;6.960;2023-06-04T11:40:54;3.35;;;0.50;;
52386;SDS011;38317;53.084;6.960;2023-06-04T11:43:22;1.00;;;0.50;;
52386;SDS011;38317;53.084;6.960;2023-06-04T11:45:48;3.30;;;0.73;;
52386;SDS011;38317;53.084;6.960;2023-06-04T11:48:14;2.53;;;0.80;;
52386;SDS011;38317;53.084;6.960;2023-06-04T11:50:40;2.28;;;0.50;;
52386;SDS011;38317;53.084;6.960;2023-06-04T11:53:06;3.83;;;0.77;;
52386;SDS011;38317;53.084;6.960;2023-06-04T11:55:32;4.30;;;0.65;;
52386;SDS011;38317;53.084;6.960;2023-06-04T11:57:58;3.08;;;0.80;;
52386;SDS011;38317;53.084;6.960;2023-06-04T12:00:24;2.47;;;0.70;;
52386;SDS011;38317;53.084;6.960;2023-06-04T12:02:51;2.78;;;0.50;;
52386;SDS011;38317;53.084;6.960;2023-06-04T12:05:18;4.15;;;0.70;;
52386;SDS011;38317;53.084;6.960;2023-06-04T12:07:51;0.95;;;0.43;;
52386;SDS011;38317;53.084;6.960;2023-06-04T12:10:18;2.10;;;0.60;;
52386;SDS011;38317;53.084;6.960;2023-06-04T12:12:44;2.05;;;0.60;;
52386;SDS011;38317;53.084;6.960;2023-06-04T12:15:10;1.60;;;0.50;;
52386;SDS011;38317;53.084;6.960;2023-06-04T12:17:36;1.80;;;0.50;;
52386;SDS011;38317;53.084;6.960;2023-06-04T12:20:02;4.10;;;0.82;;
52386;SDS011;38317;53.084;6.960;2023-06-04T12:22:30;2.85;;;0.70;;
52386;SDS011;38317;53.084;6.960;2023-06-04T12:24:57;2.55;;;0.60;;
52386;SDS011;38317;53.084;6.960;2023-06-04T12:27:25;1.05;;;0.55;;
52386;SDS011;38317;53.084;6.960;2023-06-04T12:29:58;3.08;;;0.68;;
52386;SDS011;38317;53.084;6.960;2023-06-04T12:32:25;3.00;;;0.80;;
52386;SDS011;38317;53.084;6.960;2023-06-04T12:34:51;1.60;;;0.43;;
52386;SDS011;38317;53.084;6.960;2023-06-04T12:37:17;3.15;;;0.63;;
52386;SDS011;38317;53.084;6.960;2023-06-04T12:39:42;4.53;;;0.70;;
52386;SDS011;38317;53.084;6.960;2023-06-04T12:42:08;3.72;;;0.85;;
52386;SDS011;38317;53.084;6.960;2023-06-04T12:44:41;1.92;;;0.73;;
52386;SDS011;38317;53.084;6.960;2023-06-04T12:47:07;2.35;;;0.63;;
52386;SDS011;38317;53.084;6.960;2023-06-04T12:49:33;1.55;;;0.60;;
52386;SDS011;38317;53.084;6.960;2023-06-04T12:51:59;2.05;;;0.57;;
52386;SDS011;38317;53.084;6.960;2023-06-04T12:54:25;2.30;;;0.68;;
52386;SDS011;38317;53.084;6.960;2023-06-04T12:56:52;2.35;;;0.63;;
52386;SDS011;38317;53.084;6.960;2023-06-04T12:59:18;2.25;;;0.80;;
52386;SDS011;38317;53.084;6.960;2023-06-04T13:01:44;2.42;;;0.70;;
52386;SDS011;38317;53.084;6.960;2023-06-04T13:04:10;2.40;;;0.73;;
52386;SDS011;38317;53.084;6.960;2023-06-04T13:06:36;3.67;;;0.70;;
52386;SDS011;38317;53.084;6.960;2023-06-04T13:09:03;3.03;;;0.60;;
52386;SDS011;38317;53.084;6.960;2023-06-04T13:11:37;1.92;;;0.45;;
52386;SDS011;38317;53.084;6.960;2023-06-04T13:14:04;3.17;;;0.70;;
52386;SDS011;38317;53.084;6.960;2023-06-04T13:16:29;4.22;;;0.90;;
52386;SDS011;38317;53.084;6.960;2023-06-04T13:18:55;3.00;;;0.98;;
52386;SDS011;38317;53.084;6.960;2023-06-04T13:21:21;2.45;;;0.77;;
52386;SDS011;38317;53.084;6.960;2023-06-04T13:23:47;3.22;;;0.80;;
52386;SDS011;38317;53.084;6.960;2023-06-04T13:26:14;4.13;;;0.95;;
52386;SDS011;38317;53.084;6.960;2023-06-04T13:28:41;4.57;;;0.90;;
52386;SDS011;38317;53.084;6.960;2023-06-04T13:31:06;3.03;;;0.90;;
52386;SDS011;38317;53.084;6.960;2023-06-04T13:33:32;2.22;;;0.60;;
52386;SDS011;38317;53.084;6.960;2023-06-04T13:35:59;2.53;;;0.82;;
52386;SDS011;38317;53.084;6.960;2023-06-04T13:38:27;5.32;;;0.90;;
52386;SDS011;38317;53.084;6.960;2023-06-04T13:40:52;2.65;;;0.70;;
52386;SDS011;38317;53.084;6.960;2023-06-04T13:43:18;3.53;;;1.00;;
52386;SDS011;38317;53.084;6.960;2023-06-04T13:45:44;3.10;;;0.90;;
52386;SDS011;38317;53.084;6.960;2023-06-04T13:48:12;4.05;;;1.00;;
52386;SDS011;38317;53.084;6.960;2023-06-04T13:50:38;2.22;;;0.65;;
52386;SDS011;38317;53.084;6.960;2023-06-04T13:53:03;2.15;;;0.70;;
52386;SDS011;38317;53.084;6.960;2023-06-04T13:55:30;3.55;;;1.02;;
52386;SDS011;38317;53.084;6.960;2023-06-04T13:57:55;2.88;;;0.93;;
52386;SDS011;38317;53.084;6.960;2023-06-04T14:00:21;3.35;;;0.80;;
52386;SDS011;38317;53.084;6.960;2023-06-04T14:02:48;4.50;;;1.00;;
52386;SDS011;38317;53.084;6.960;2023-06-04T14:05:14;5.35;;;1.17;;
52386;SDS011;38317;53.084;6.960;2023-06-04T14:07:43;3.33;;;0.90;;
52386;SDS011;38317;53.084;6.960;2023-06-04T14:10:10;2.92;;;1.13;;
52386;SDS011;38317;53.084;6.960;2023-06-04T14:12:39;2.83;;;0.82;;
52386;SDS011;38317;53.084;6.960;2023-06-04T14:15:06;3.53;;;0.60;;
52386;SDS011;38317;53.084;6.960;2023-06-04T14:17:34;5.68;;;0.90;;
52386;SDS011;38317;53.084;6.960;2023-06-04T14:20:01;4.60;;;0.80;;
52386;SDS011;38317;53.084;6.960;2023-06-04T14:22:32;2.10;;;0.70;;
52386;SDS011;38317;53.084;6.960;2023-06-04T14:25:00;6.28;;;0.90;;
52386;SDS011;38317;53.084;6.960;2023-06-04T14:27:26;3.30;;;0.77;;
52386;SDS011;38317;53.084;6.960;2023-06-04T14:29:52;4.43;;;0.93;;
52386;SDS011;38317;53.084;6.960;2023-06-04T14:32:18;3.70;;;0.80;;
52386;SDS011;38317;53.084;6.960;2023-06-04T14:34:44;3.80;;;0.90;;
52386;SDS011;38317;53.084;6.960;2023-06-04T14:37:09;3.67;;;1.00;;
52386;SDS011;38317;53.084;6.960;2023-06-04T14:39:35;2.13;;;0.60;;
52386;SDS011;38317;53.084;6.960;2023-06-04T14:42:01;2.92;;;0.93;;
52386;SDS011;38317;53.084;6.960;2023-06-04T14:44:27;2.55;;;0.70;;
52386;SDS011;38317;53.084;6.960;2023-06-04T14:46:53;3.20;;;0.82;;
52386;SDS011;38317;53.084;6.960;2023-06-04T14:49:19;4.88;;;0.98;;
52386;SDS011;38317;53.084;6.960;2023-06-04T14:51:45;3.95;;;0.68;;
52386;SDS011;38317;53.084;6.960;2023-06-04T14:54:11;3.80;;;0.68;;
52386;SDS011;38317;53.084;6.960;2023-06-04T14:56:37;1.73;;;0.70;;
52386;SDS011;38317;53.084;6.960;2023-06-04T14:59:03;2.25;;;0.90;;
52386;SDS011;38317;53.084;6.960;2023-06-04T15:01:34;3.70;;;0.90;;